Time;durP1;ratioP1;P1;durP2;ratioP2;P2;SDS_P1;SDS_P2;PMS_P1;PMS_P2;Temp;Humidity;BMP_temperature;BMP_pressure;BME280_temperature;BME280_humidity;BME280_pressure;Samples;Min_cycle;Max_cycle;Signal;HPM_P1;HPM_P2
2023/05/29 00:02:24;;;;;;;1.58;1.15;;;18.10;66.00;;;;;;4958313;28;20227;-64
2023/05/29 00:04:51;;;;;;;1.42;1.33;;;18.00;65.90;;;;;;4985362;28;20510;-64
2023/05/29 00:07:18;;;;;;;1.60;1.40;;;18.00;65.70;;;;;;4958309;28;20249;-65
2023/05/29 00:09:45;;;;;;;1.40;1.30;;;18.10;65.70;;;;;;4973660;28;20259;-64
2023/05/29 00:12:13;;;;;;;1.77;1.45;;;18.00;65.50;;;;;;4973727;28;20251;-65
2023/05/29 00:14:40;;;;;;;1.50;1.40;;;18.00;65.40;;;;;;4975631;28;20200;-67
2023/05/29 00:17:08;;;;;;;2.92;1.65;;;18.00;65.30;;;;;;4974863;28;20258;-64
2023/05/29 00:19:36;;;;;;;2.42;1.38;;;18.00;65.30;;;;;;4973951;28;20210;-63
2023/05/29 00:22:04;;;;;;;1.55;1.45;;;18.00;65.10;;;;;;4965370;28;20212;-65
2023/05/29 00:24:31;;;;;;;2.97;1.42;;;18.00;64.90;;;;;;4985147;28;20238;-66
2023/05/29 00:26:58;;;;;;;2.30;1.20;;;18.00;64.80;;;;;;4975547;28;20205;-64
2023/05/29 00:29:26;;;;;;;1.40;1.30;;;18.00;64.60;;;;;;4975067;28;20210;-65
2023/05/29 00:31:53;;;;;;;2.15;1.58;;;18.00;64.40;;;;;;4974399;28;20198;-65
2023/05/29 00:34:23;;;;;;;1.35;1.20;;;17.90;64.30;;;;;;4961189;28;20743;-65
2023/05/29 00:36:54;;;;;;;2.35;1.40;;;17.90;64.10;;;;;;4964423;28;20215;-65
2023/05/29 00:39:22;;;;;;;1.20;1.10;;;17.90;64.00;;;;;;4963810;28;20571;-65
2023/05/29 00:41:51;;;;;;;1.88;1.00;;;17.90;63.90;;;;;;4965341;28;20301;-65
2023/05/29 00:44:18;;;;;;;1.20;1.10;;;17.90;63.80;;;;;;4982904;28;20220;-65
2023/05/29 00:46:46;;;;;;;1.40;1.30;;;17.90;63.70;;;;;;4973139;28;20617;-66
2023/05/29 00:49:13;;;;;;;2.27;1.30;;;17.90;63.50;;;;;;4972637;28;20199;-64
2023/05/29 00:51:41;;;;;;;1.20;1.10;;;17.80;63.20;;;;;;4968614;28;20233;-65
2023/05/29 00:54:13;;;;;;;1.53;1.33;;;17.90;63.20;;;;;;4972769;28;20203;-65
2023/05/29 00:56:43;;;;;;;1.60;1.20;;;17.90;63.00;;;;;;4985593;28;20199;-65
2023/05/29 00:59:11;;;;;;;1.30;1.20;;;17.90;62.90;;;;;;4971464;28;20200;-64
2023/05/29 01:04:17;;;;;;;1.45;1.30;;;18.30;63.10;;;;;;4957032;28;20221;-65
2023/05/29 01:06:45;;;;;;;1.33;1.23;;;17.80;62.40;;;;;;4979954;28;20192;-65
2023/05/29 01:09:14;;;;;;;1.10;1.10;;;17.80;62.40;;;;;;4968677;28;20677;-65
2023/05/29 01:11:52;;;;;;;2.87;1.47;;;17.80;62.40;;;;;;4956284;28;20207;-65
2023/05/29 01:14:29;;;;;;;3.03;1.30;;;17.80;62.30;;;;;;4971741;28;20210;-65
2023/05/29 01:17:05;;;;;;;1.90;1.27;;;17.70;62.10;;;;;;4972704;28;20201;-65
2023/05/29 01:19:56;;;;;;;1.45;1.20;;;17.80;62.20;;;;;;4969564;28;20257;-65
2023/05/29 01:22:34;;;;;;;1.02;1.00;;;17.80;62.20;;;;;;4965424;28;20198;-65
2023/05/29 01:25:14;;;;;;;1.37;1.27;;;17.80;62.20;;;;;;4953522;28;20198;-65
2023/05/29 01:27:44;;;;;;;1.20;1.10;;;17.70;62.00;;;;;;4964048;28;20979;-65
2023/05/29 01:30:14;;;;;;;1.33;1.23;;;17.70;62.00;;;;;;4968059;28;20217;-65
2023/05/29 01:32:43;;;;;;;1.50;1.40;;;17.70;62.00;;;;;;4954596;28;20771;-65
2023/05/29 01:35:10;;;;;;;2.07;1.30;;;17.70;62.00;;;;;;4952306;28;20205;-66
2023/05/29 01:37:37;;;;;;;1.00;1.00;;;17.70;62.00;;;;;;4965902;28;20210;-65
2023/05/29 01:40:05;;;;;;;1.17;1.10;;;17.70;62.00;;;;;;4963539;28;20250;-65
2023/05/29 01:42:33;;;;;;;2.40;1.42;;;17.70;62.10;;;;;;4971741;28;20215;-65
2023/05/29 01:45:03;;;;;;;1.75;1.30;;;17.70;62.00;;;;;;4969778;28;20209;-65
2023/05/29 01:47:31;;;;;;;1.85;1.30;;;17.70;62.00;;;;;;4960429;28;20194;-65
2023/05/29 01:50:03;;;;;;;1.27;1.27;;;17.70;62.00;;;;;;4974822;28;20203;-65
2023/05/29 01:52:30;;;;;;;1.00;1.00;;;17.70;62.10;;;;;;4964039;28;20476;-65
2023/05/29 01:54:57;;;;;;;1.77;1.10;;;17.70;62.10;;;;;;4953403;28;20689;-66
2023/05/29 01:57:26;;;;;;;1.73;1.57;;;17.60;62.30;;;;;;4968800;28;20204;-66
2023/05/29 01:59:54;;;;;;;1.25;1.13;;;17.60;62.20;;;;;;4973906;28;20640;-65
2023/05/29 02:02:23;;;;;;;2.92;1.40;;;17.60;62.20;;;;;;4949920;28;20235;-65
2023/05/29 02:04:51;;;;;;;1.98;1.40;;;17.60;62.10;;;;;;4950911;28;20251;-65
2023/05/29 02:07:19;;;;;;;1.30;1.20;;;17.60;62.10;;;;;;4947193;29;20290;-65
2023/05/29 02:09:46;;;;;;;0.93;0.93;;;17.60;62.10;;;;;;4949038;28;20314;-65
2023/05/29 02:12:13;;;;;;;0.90;0.90;;;17.70;62.10;;;;;;4936724;28;20201;-65
2023/05/29 02:14:41;;;;;;;1.40;1.30;;;17.70;62.10;;;;;;4949468;28;20661;-65
2023/05/29 02:17:09;;;;;;;1.30;1.20;;;17.60;62.00;;;;;;4927367;29;20219;-65
2023/05/29 02:19:37;;;;;;;1.10;1.00;;;17.60;62.10;;;;;;4938158;29;20690;-66
2023/05/29 02:22:05;;;;;;;1.45;1.00;;;17.60;62.20;;;;;;4954769;28;20577;-65
2023/05/29 02:24:32;;;;;;;1.45;1.20;;;17.60;62.20;;;;;;4948199;28;20203;-65
2023/05/29 02:27:01;;;;;;;1.15;1.05;;;17.60;62.30;;;;;;4946172;28;20211;-65
2023/05/29 02:29:28;;;;;;;1.25;1.05;;;17.60;62.30;;;;;;4950231;28;20292;-66
2023/05/29 02:31:55;;;;;;;1.00;1.00;;;17.60;62.30;;;;;;4930150;29;20225;-65
2023/05/29 02:34:23;;;;;;;1.27;1.10;;;17.60;62.50;;;;;;4954645;28;20282;-65
2023/05/29 02:36:52;;;;;;;1.40;1.10;;;17.50;62.50;;;;;;4951054;29;20206;-65
2023/05/29 02:39:20;;;;;;;1.10;1.00;;;17.50;62.60;;;;;;4945914;28;20200;-66
2023/05/29 02:41:47;;;;;;;0.90;0.90;;;17.40;62.70;;;;;;4937711;28;20201;-66
2023/05/29 02:44:14;;;;;;;1.60;1.23;;;17.40;62.90;;;;;;4932585;29;20226;-66
2023/05/29 02:46:41;;;;;;;1.30;1.20;;;17.30;63.00;;;;;;4942405;29;20211;-66
2023/05/29 02:49:09;;;;;;;2.57;1.27;;;17.30;63.20;;;;;;4948425;28;20208;-66
2023/05/29 02:51:37;;;;;;;1.20;1.10;;;17.30;63.20;;;;;;4945747;28;20214;-66
2023/05/29 02:54:05;;;;;;;1.50;1.17;;;17.30;63.30;;;;;;4932174;29;20634;-66
2023/05/29 02:56:34;;;;;;;1.50;1.40;;;17.30;63.30;;;;;;4967476;28;20190;-66
2023/05/29 02:59:01;;;;;;;1.30;1.20;;;17.30;63.30;;;;;;4944329;28;20264;-66
2023/05/29 03:01:30;;;;;;;1.30;1.20;;;17.30;63.40;;;;;;4937386;28;20219;-67
2023/05/29 03:03:57;;;;;;;1.30;1.20;;;17.30;64.00;;;;;;4945799;28;20240;-66
2023/05/29 03:06:24;;;;;;;1.40;1.00;;;17.30;63.30;;;;;;4961514;28;20210;-67
2023/05/29 03:08:52;;;;;;;1.40;1.00;;;17.30;63.30;;;;;;4933064;29;20246;-66
2023/05/29 03:11:23;;;;;;;1.20;1.10;;;17.30;63.50;;;;;;4944396;28;20252;-67
2023/05/29 03:13:50;;;;;;;1.00;1.00;;;17.30;63.50;;;;;;4941975;28;20201;-66
2023/05/29 03:16:18;;;;;;;0.97;0.97;;;17.30;63.70;;;;;;4949890;28;20608;-67
2023/05/29 03:18:46;;;;;;;0.83;0.83;;;17.20;63.70;;;;;;4946337;28;20206;-66
2023/05/29 03:21:17;;;;;;;1.07;1.07;;;17.30;63.90;;;;;;4930239;29;20222;-66
2023/05/29 03:23:45;;;;;;;2.30;1.27;;;17.30;64.10;;;;;;4948696;28;20213;-67
2023/05/29 03:26:13;;;;;;;1.13;1.00;;;17.30;64.20;;;;;;4948492;28;20243;-66
2023/05/29 03:28:43;;;;;;;1.20;1.10;;;17.30;64.30;;;;;;4954695;28;20813;-66
2023/05/29 03:31:11;;;;;;;2.30;1.30;;;17.20;64.40;;;;;;4939138;29;20255;-66
2023/05/29 03:33:38;;;;;;;1.07;0.97;;;17.20;64.60;;;;;;4951551;28;20194;-66
2023/05/29 03:36:17;;;;;;;1.17;1.07;;;17.20;64.80;;;;;;4951460;28;20280;-65
2023/05/29 03:38:45;;;;;;;1.13;1.10;;;17.20;64.80;;;;;;4938100;28;20210;-66
2023/05/29 03:41:12;;;;;;;0.97;0.90;;;17.20;64.90;;;;;;4959299;28;20206;-66
2023/05/29 03:43:39;;;;;;;1.50;1.00;;;17.30;65.10;;;;;;4954522;28;20228;-65
2023/05/29 03:46:08;;;;;;;0.87;0.80;;;17.30;65.20;;;;;;4948446;28;20237;-66
2023/05/29 03:48:36;;;;;;;1.73;1.00;;;17.30;65.30;;;;;;4940603;28;20201;-66
2023/05/29 03:51:03;;;;;;;2.87;1.00;;;17.40;65.50;;;;;;4948733;28;20205;-65
2023/05/29 03:53:35;;;;;;;1.20;1.10;;;17.40;65.50;;;;;;4936722;29;20202;-66
2023/05/29 03:56:02;;;;;;;1.20;1.10;;;17.40;65.60;;;;;;4933689;28;20217;-67
2023/05/29 03:58:30;;;;;;;1.13;1.00;;;17.40;65.80;;;;;;4935842;29;20305;-65
2023/05/29 04:00:58;;;;;;;1.03;1.00;;;17.30;65.90;;;;;;4935672;29;20227;-65
2023/05/29 04:03:30;;;;;;;0.80;0.80;;;17.30;66.10;;;;;;4956917;28;20280;-65
2023/05/29 04:05:59;;;;;;;1.10;1.10;;;17.30;66.30;;;;;;4937254;28;20205;-66
2023/05/29 04:08:26;;;;;;;1.20;0.90;;;17.30;66.40;;;;;;4936209;29;20219;-65
2023/05/29 04:10:54;;;;;;;2.20;1.03;;;17.30;66.50;;;;;;4949467;28;20200;-66
2023/05/29 04:13:22;;;;;;;0.83;0.83;;;17.30;66.40;;;;;;4937014;29;20621;-67
2023/05/29 04:15:52;;;;;;;0.83;0.83;;;17.40;66.50;;;;;;4954959;28;20261;-65
2023/05/29 04:18:20;;;;;;;1.15;0.90;;;17.40;66.50;;;;;;4950545;28;20232;-65
2023/05/29 04:20:48;;;;;;;1.03;0.93;;;17.40;66.50;;;;;;4939638;28;20669;-65
2023/05/29 04:23:15;;;;;;;1.43;0.90;;;17.40;66.50;;;;;;4950693;28;20710;-65
2023/05/29 04:25:44;;;;;;;1.53;0.90;;;17.40;66.50;;;;;;4942285;28;20277;-65
2023/05/29 04:28:12;;;;;;;1.67;0.90;;;17.50;66.60;;;;;;4945057;28;20217;-66
2023/05/29 04:30:41;;;;;;;1.23;1.10;;;17.50;66.50;;;;;;4942999;28;20194;-66
2023/05/29 04:33:12;;;;;;;0.93;0.90;;;17.60;66.50;;;;;;4935468;29;20197;-66
2023/05/29 04:35:45;;;;;;;0.77;0.77;;;17.70;66.50;;;;;;4923816;29;20297;-66
2023/05/29 04:38:14;;;;;;;1.27;0.90;;;17.70;66.30;;;;;;4938052;28;20235;-66
2023/05/29 04:40:41;;;;;;;0.95;0.90;;;17.70;66.20;;;;;;4947035;28;20197;-67
2023/05/29 04:43:09;;;;;;;1.67;1.20;;;17.80;66.30;;;;;;4929952;29;20222;-66
2023/05/29 04:45:58;;;;;;;1.10;1.00;;;17.80;66.20;;;;;;4945407;28;20288;-66
2023/05/29 04:48:26;;;;;;;1.10;1.10;;;17.90;66.20;;;;;;4946685;28;20609;-65
2023/05/29 04:50:54;;;;;;;1.20;1.10;;;17.90;66.20;;;;;;4938633;28;20273;-66
2023/05/29 04:53:23;;;;;;;1.60;1.20;;;18.00;66.10;;;;;;4937028;28;20210;-66
2023/05/29 04:55:50;;;;;;;1.20;0.90;;;18.00;66.00;;;;;;4957415;28;20288;-67
2023/05/29 04:58:18;;;;;;;1.90;0.80;;;18.10;66.00;;;;;;4946271;28;20662;-66
2023/05/29 05:00:45;;;;;;;1.30;0.80;;;18.10;65.90;;;;;;4935364;28;20205;-67
2023/05/29 05:03:16;;;;;;;0.73;0.73;;;18.10;65.70;;;;;;4963958;28;20352;-66
2023/05/29 05:05:44;;;;;;;0.70;0.70;;;18.10;65.50;;;;;;4969765;28;20718;-65
2023/05/29 05:08:12;;;;;;;2.23;0.90;;;18.20;65.30;;;;;;4969419;28;20535;-67
2023/05/29 05:10:41;;;;;;;1.20;1.10;;;18.30;65.30;;;;;;4971249;28;20216;-65
2023/05/29 05:13:08;;;;;;;1.83;1.13;;;18.30;65.10;;;;;;4953658;28;20535;-64
2023/05/29 05:15:37;;;;;;;2.03;1.10;;;18.30;65.00;;;;;;4963519;28;20607;-64
2023/05/29 05:18:05;;;;;;;1.17;0.90;;;18.30;64.90;;;;;;4959506;28;20211;-65
2023/05/29 05:20:34;;;;;;;1.63;0.88;;;18.40;64.50;;;;;;4956983;28;20199;-66
2023/05/29 05:23:02;;;;;;;1.20;0.90;;;18.50;64.10;;;;;;4968421;28;20205;-66
2023/05/29 05:25:29;;;;;;;0.65;0.65;;;18.40;63.40;;;;;;4971671;28;20672;-64
2023/05/29 05:27:57;;;;;;;1.33;0.95;;;18.50;63.10;;;;;;4952449;28;20215;-66
2023/05/29 05:30:27;;;;;;;1.57;1.00;;;18.50;62.80;;;;;;4951637;28;20655;-66
2023/05/29 05:32:54;;;;;;;1.07;0.97;;;18.50;62.50;;;;;;4965908;28;20386;-66
2023/05/29 05:35:21;;;;;;;2.78;0.90;;;18.50;62.20;;;;;;4964948;28;20302;-66
2023/05/29 05:37:49;;;;;;;0.77;0.77;;;18.60;62.20;;;;;;4948656;28;20223;-65
2023/05/29 05:40:16;;;;;;;0.90;0.90;;;18.40;62.00;;;;;;4954392;28;20226;-66
2023/05/29 05:43:00;;;;;;;1.27;0.93;;;18.40;61.90;;;;;;4939705;28;20797;-65
2023/05/29 05:45:47;;;;;;;0.65;0.65;;;18.40;61.80;;;;;;4956491;28;20216;-65
2023/05/29 05:48:15;;;;;;;0.97;0.80;;;18.40;61.70;;;;;;4972383;28;20203;-65
2023/05/29 05:50:43;;;;;;;1.83;0.90;;;18.40;61.70;;;;;;4950726;28;20249;-65
2023/05/29 05:53:10;;;;;;;1.40;0.90;;;18.50;61.60;;;;;;4967144;28;20302;-66
2023/05/29 05:55:38;;;;;;;1.55;1.00;;;18.40;61.40;;;;;;4953442;28;20207;-65
2023/05/29 05:58:07;;;;;;;1.10;0.80;;;18.40;61.20;;;;;;4948137;28;20222;-65
2023/05/29 06:00:35;;;;;;;0.80;0.80;;;18.40;61.30;;;;;;4964041;28;20309;-66
2023/05/29 06:03:03;;;;;;;1.05;0.98;;;18.30;61.20;;;;;;4956377;28;20258;-65
2023/05/29 06:05:56;;;;;;;0.87;0.80;;;18.30;61.10;;;;;;4961186;28;20225;-66
2023/05/29 06:08:24;;;;;;;0.80;0.80;;;18.30;61.10;;;;;;4941493;28;20302;-66
2023/05/29 06:10:53;;;;;;;1.10;0.60;;;18.30;61.10;;;;;;4943422;28;20198;-66
2023/05/29 06:13:22;;;;;;;1.40;0.90;;;18.30;61.00;;;;;;4956084;28;20294;-67
2023/05/29 06:15:54;;;;;;;1.67;1.08;;;18.30;61.00;;;;;;4951952;28;20247;-64
2023/05/29 06:18:21;;;;;;;1.90;1.00;;;18.30;61.00;;;;;;4965105;28;20845;-66
2023/05/29 06:20:49;;;;;;;1.77;1.10;;;18.30;61.00;;;;;;4964466;28;20221;-65
2023/05/29 06:23:17;;;;;;;1.57;1.10;;;18.40;60.90;;;;;;4962731;28;20205;-65
2023/05/29 06:25:44;;;;;;;1.07;0.80;;;18.40;61.00;;;;;;4970112;28;20194;-66
2023/05/29 06:28:11;;;;;;;1.77;0.90;;;18.40;61.00;;;;;;4956274;28;20516;-66
2023/05/29 06:30:40;;;;;;;0.77;0.77;;;18.40;61.20;;;;;;4957761;28;20310;-66
2023/05/29 06:33:09;;;;;;;1.48;1.00;;;18.40;61.30;;;;;;4945233;28;20300;-65
2023/05/29 06:35:39;;;;;;;2.25;1.00;;;18.50;61.40;;;;;;4957170;28;20742;-66
2023/05/29 06:38:06;;;;;;;1.55;1.00;;;18.50;61.50;;;;;;4958150;28;20226;-65
2023/05/29 06:40:34;;;;;;;0.97;0.97;;;18.60;61.50;;;;;;4968444;28;20198;-65
2023/05/29 06:43:02;;;;;;;1.83;1.00;;;18.60;61.30;;;;;;4952575;28;20301;-65
2023/05/29 06:45:41;;;;;;;0.95;0.82;;;18.70;61.20;;;;;;4948562;28;20218;-66
2023/05/29 06:48:10;;;;;;;2.17;1.13;;;18.80;61.30;;;;;;4951545;28;20695;-66
2023/05/29 06:50:39;;;;;;;2.47;0.93;;;18.80;61.00;;;;;;4968722;28;20219;-66
2023/05/29 06:53:42;;;;;;;1.65;0.90;;;18.90;60.80;;;;;;4914676;29;20739;-66
2023/05/29 06:56:12;;;;;;;2.03;1.13;;;18.90;60.50;;;;;;4951035;28;20207;-66
2023/05/29 06:58:40;;;;;;;1.70;1.27;;;18.90;60.40;;;;;;4951962;28;20319;-66
2023/05/29 07:01:08;;;;;;;3.70;1.27;;;18.80;60.20;;;;;;4949748;28;20207;-66
2023/05/29 07:03:38;;;;;;;0.85;0.73;;;18.80;60.20;;;;;;4958563;28;20255;-67
2023/05/29 07:06:06;;;;;;;2.67;1.30;;;18.90;60.30;;;;;;4954072;28;20209;-66
2023/05/29 07:08:34;;;;;;;0.98;0.95;;;18.90;60.30;;;;;;4946940;28;20262;-66
2023/05/29 07:11:02;;;;;;;1.70;1.27;;;19.10;60.40;;;;;;4955526;28;20292;-67
2023/05/29 07:13:29;;;;;;;1.38;1.13;;;19.10;60.30;;;;;;4968873;28;20222;-67
2023/05/29 07:15:56;;;;;;;2.60;1.10;;;19.20;60.40;;;;;;4947709;28;20197;-67
2023/05/29 07:18:31;;;;;;;1.17;1.10;;;19.30;60.20;;;;;;4956418;28;20203;-66
2023/05/29 07:21:01;;;;;;;1.38;0.90;;;19.30;59.70;;;;;;4969077;28;20204;-66
2023/05/29 07:23:29;;;;;;;0.65;0.65;;;19.40;59.60;;;;;;4950493;28;20204;-66
2023/05/29 07:25:57;;;;;;;0.90;0.90;;;19.40;59.50;;;;;;4954923;28;20227;-66
2023/05/29 07:28:28;;;;;;;2.30;1.08;;;19.50;59.50;;;;;;4958011;28;20200;-65
2023/05/29 07:30:55;;;;;;;2.95;0.75;;;19.50;59.20;;;;;;4948586;28;20205;-66
2023/05/29 07:33:22;;;;;;;2.97;1.23;;;19.50;59.00;;;;;;4954371;28;20212;-66
2023/05/29 07:35:51;;;;;;;1.00;1.00;;;19.60;58.90;;;;;;4953824;28;20211;-66
2023/05/29 07:38:18;;;;;;;3.85;1.50;;;19.60;58.70;;;;;;4965810;28;20200;-66
2023/05/29 07:40:45;;;;;;;1.63;1.27;;;19.60;58.50;;;;;;4977279;28;20279;-66
2023/05/29 07:43:30;;;;;;;2.80;1.00;;;19.60;58.30;;;;;;4963213;28;20219;-66
2023/05/29 07:46:01;;;;;;;1.83;1.10;;;19.60;58.10;;;;;;4965967;28;20587;-66
2023/05/29 07:48:29;;;;;;;2.53;1.08;;;19.60;58.00;;;;;;4959311;28;20251;-66
2023/05/29 07:50:59;;;;;;;2.03;1.00;;;19.70;58.00;;;;;;4955671;28;20596;-66
2023/05/29 07:53:29;;;;;;;0.95;0.90;;;19.70;57.90;;;;;;4943412;28;20232;-66
2023/05/29 07:55:57;;;;;;;2.83;0.90;;;19.80;57.90;;;;;;4963686;28;20636;-66
2023/05/29 07:58:24;;;;;;;4.78;0.90;;;19.90;57.80;;;;;;4966705;28;20513;-66
2023/05/29 08:00:52;;;;;;;1.90;1.00;;;19.90;57.70;;;;;;4952419;28;20201;-66
2023/05/29 08:03:19;;;;;;;1.70;1.05;;;19.90;57.50;;;;;;4976873;28;20266;-65
2023/05/29 08:06:06;;;;;;;2.70;1.20;;;19.90;57.40;;;;;;4965209;28;20235;-66
2023/05/29 08:08:35;;;;;;;1.67;0.93;;;19.90;57.10;;;;;;4952381;28;20747;-66
2023/05/29 08:11:02;;;;;;;1.30;1.20;;;20.00;57.20;;;;;;4956012;28;20300;-66
2023/05/29 08:13:31;;;;;;;2.00;1.08;;;20.00;56.90;;;;;;4946744;28;20200;-66
2023/05/29 08:15:58;;;;;;;1.20;1.00;;;20.00;56.80;;;;;;4954694;28;20227;-66
2023/05/29 08:18:26;;;;;;;1.33;1.23;;;20.00;56.60;;;;;;4976075;28;20200;-66
2023/05/29 08:20:53;;;;;;;2.15;0.80;;;20.10;56.40;;;;;;4967731;28;20201;-66
2023/05/29 08:23:22;;;;;;;0.90;0.85;;;20.20;56.20;;;;;;4973948;28;20203;-66
2023/05/29 08:25:49;;;;;;;1.60;0.90;;;20.20;56.10;;;;;;4950504;28;20212;-68
2023/05/29 08:28:16;;;;;;;1.08;0.80;;;20.30;55.70;;;;;;4967015;28;20660;-66
2023/05/29 08:30:43;;;;;;;0.80;0.80;;;20.40;55.60;;;;;;4970007;28;20242;-67
2023/05/29 08:33:11;;;;;;;1.88;0.90;;;20.40;55.50;;;;;;4953494;28;20299;-66
2023/05/29 08:35:38;;;;;;;0.65;0.63;;;20.50;55.10;;;;;;4961243;28;20299;-66
2023/05/29 08:38:06;;;;;;;0.80;0.80;;;20.50;54.90;;;;;;4971616;28;20197;-66
2023/05/29 08:40:34;;;;;;;1.10;1.00;;;20.60;54.60;;;;;;4970679;28;20564;-66
2023/05/29 08:43:09;;;;;;;0.70;0.70;;;20.60;54.10;;;;;;4970097;28;20223;-67
2023/05/29 08:45:43;;;;;;;0.80;0.80;;;20.60;53.70;;;;;;4969752;28;20212;-66
2023/05/29 08:48:11;;;;;;;1.08;1.00;;;20.70;53.20;;;;;;4971146;28;20195;-66
2023/05/29 08:50:44;;;;;;;0.80;0.80;;;20.80;53.00;;;;;;4957813;28;20208;-67
2023/05/29 08:53:11;;;;;;;0.93;0.90;;;20.80;52.80;;;;;;4953474;28;20212;-66
2023/05/29 08:55:40;;;;;;;1.02;0.88;;;20.90;52.40;;;;;;4964682;28;20234;-66
2023/05/29 08:58:09;;;;;;;3.90;0.90;;;21.00;52.40;;;;;;4953229;28;20212;-67
2023/05/29 09:00:37;;;;;;;1.23;1.10;;;21.10;52.30;;;;;;4968594;28;20200;-67
2023/05/29 09:03:04;;;;;;;0.95;0.80;;;21.10;51.80;;;;;;4973994;28;20742;-66
2023/05/29 09:05:32;;;;;;;0.73;0.70;;;21.20;51.80;;;;;;4969178;28;20211;-65
2023/05/29 09:08:02;;;;;;;0.60;0.60;;;21.30;51.50;;;;;;4950360;28;20303;-65
2023/05/29 09:10:29;;;;;;;0.70;0.70;;;21.40;51.00;;;;;;4980077;28;20199;-66
2023/05/29 09:12:58;;;;;;;0.70;0.70;;;21.40;50.50;;;;;;4975046;28;20977;-67
2023/05/29 09:15:26;;;;;;;0.60;0.60;;;21.50;50.20;;;;;;4970844;28;20208;-67
2023/05/29 09:17:54;;;;;;;1.13;0.80;;;21.50;49.70;;;;;;4977302;28;20258;-67
2023/05/29 09:20:23;;;;;;;0.95;0.85;;;21.60;49.30;;;;;;4970114;28;20559;-66
2023/05/29 09:22:55;;;;;;;0.70;0.70;;;21.70;48.90;;;;;;4964185;28;20193;-67
2023/05/29 09:25:24;;;;;;;0.65;0.65;;;21.70;48.50;;;;;;4964701;28;20224;-66
2023/05/29 09:27:54;;;;;;;0.80;0.80;;;21.70;48.40;;;;;;4971059;28;20271;-66
2023/05/29 09:30:37;;;;;;;0.80;0.80;;;21.80;48.50;;;;;;4971541;28;20633;-66
2023/05/29 09:33:05;;;;;;;0.80;0.80;;;21.70;48.40;;;;;;4976729;28;20279;-65
2023/05/29 09:35:37;;;;;;;0.60;0.60;;;21.80;48.60;;;;;;4965545;28;20259;-67
2023/05/29 09:38:05;;;;;;;0.80;0.80;;;21.90;48.70;;;;;;4957174;28;20571;-67
2023/05/29 09:40:33;;;;;;;1.33;0.90;;;22.00;48.80;;;;;;4976347;28;20282;-64
2023/05/29 09:43:07;;;;;;;0.88;0.75;;;22.10;48.70;;;;;;4964219;28;20201;-65
2023/05/29 09:45:39;;;;;;;2.30;0.80;;;22.20;48.80;;;;;;4970365;28;20224;-66
2023/05/29 09:48:08;;;;;;;3.50;0.85;;;22.30;49.20;;;;;;4954221;28;20197;-65
2023/05/29 09:50:35;;;;;;;1.08;0.70;;;22.30;49.60;;;;;;4971926;28;20200;-66
2023/05/29 09:53:03;;;;;;;0.90;0.90;;;22.40;50.10;;;;;;4970908;28;20942;-66
2023/05/29 09:55:33;;;;;;;2.13;0.90;;;22.50;50.70;;;;;;4958763;28;20291;-65
2023/05/29 09:58:01;;;;;;;3.72;1.27;;;22.50;51.10;;;;;;4966360;28;20636;-66
2023/05/29 10:00:30;;;;;;;2.60;1.00;;;22.60;52.20;;;;;;4971916;28;20588;-66
2023/05/29 10:02:59;;;;;;;10.13;1.50;;;22.60;52.90;;;;;;4966408;28;20232;-66
2023/05/29 10:05:26;;;;;;;5.07;1.75;;;22.60;54.10;;;;;;4968824;28;20294;-66
2023/05/29 10:07:55;;;;;;;7.03;2.10;;;22.60;55.20;;;;;;4973794;28;20204;-66
2023/05/29 10:10:26;;;;;;;4.47;1.75;;;22.50;56.10;;;;;;4965416;28;20204;-66
2023/05/29 10:12:54;;;;;;;7.97;1.38;;;22.40;56.60;;;;;;4967888;28;20291;-66
2023/05/29 10:15:24;;;;;;;3.40;1.45;;;22.40;56.80;;;;;;4965651;28;20320;-66
2023/05/29 10:17:57;;;;;;;2.78;1.48;;;22.40;56.80;;;;;;4970993;28;20204;-66
2023/05/29 10:20:29;;;;;;;4.53;1.73;;;22.30;57.50;;;;;;4972241;28;20335;-66
2023/05/29 10:23:00;;;;;;;2.45;1.02;;;22.20;56.90;;;;;;4964215;28;20197;-66
2023/05/29 10:25:30;;;;;;;3.75;1.25;;;22.20;56.90;;;;;;4961404;28;20226;-66
2023/05/29 10:27:58;;;;;;;4.50;1.73;;;22.20;56.90;;;;;;4971353;28;20299;-67
2023/05/29 10:30:32;;;;;;;3.92;1.20;;;22.20;56.70;;;;;;4966242;28;20200;-66
2023/05/29 10:33:35;;;;;;;6.10;1.48;;;22.30;56.30;;;;;;4970805;28;20613;-67
2023/05/29 10:36:10;;;;;;;3.67;1.20;;;22.30;55.50;;;;;;4963357;28;20293;-66
2023/05/29 10:38:41;;;;;;;2.28;1.20;;;22.20;55.30;;;;;;4969636;28;20192;-66
2023/05/29 10:41:39;;;;;;;2.22;1.00;;;22.20;55.60;;;;;;4959098;28;20216;-66
2023/05/29 10:44:43;;;;;;;2.95;1.20;;;22.30;56.10;;;;;;4962723;28;20196;-65
2023/05/29 10:47:12;;;;;;;2.15;1.20;;;22.30;55.80;;;;;;4971121;28;20211;-66
2023/05/29 10:49:39;;;;;;;4.18;1.23;;;22.40;55.90;;;;;;4963110;28;20208;-65
2023/05/29 10:52:11;;;;;;;3.22;1.38;;;22.40;55.80;;;;;;4981196;28;20200;-65
2023/05/29 10:54:52;;;;;;;3.83;1.40;;;22.50;55.10;;;;;;4973813;28;20655;-65
2023/05/29 10:57:22;;;;;;;4.30;1.67;;;22.50;54.70;;;;;;4966851;28;20292;-66
2023/05/29 10:59:58;;;;;;;2.58;1.35;;;22.60;54.50;;;;;;4962771;28;20200;-65
2023/05/29 11:02:25;;;;;;;1.40;1.17;;;22.60;54.20;;;;;;4972480;28;20239;-65
2023/05/29 11:05:07;;;;;;;1.67;1.15;;;22.20;54.10;;;;;;4959557;28;20223;-65
2023/05/29 11:07:36;;;;;;;3.13;1.40;;;22.60;54.70;;;;;;4973148;28;20227;-66
2023/05/29 11:10:14;;;;;;;1.98;1.23;;;22.70;54.70;;;;;;4949423;28;20201;-66
2023/05/29 11:13:00;;;;;;;1.17;1.00;;;22.70;54.70;;;;;;4973861;28;20202;-66
2023/05/29 11:15:27;;;;;;;1.23;0.88;;;22.80;54.90;;;;;;4967798;28;20203;-66
2023/05/29 11:17:55;;;;;;;0.70;0.70;;;22.90;55.00;;;;;;4975019;28;20278;-66
2023/05/29 11:20:44;;;;;;;3.80;0.90;;;22.90;55.00;;;;;;4977316;28;20696;-66
2023/05/29 11:23:17;;;;;;;0.68;0.68;;;23.10;54.80;;;;;;4968575;28;20308;-66
2023/05/29 11:25:47;;;;;;;0.80;0.80;;;23.20;54.80;;;;;;4955092;28;20218;-65
2023/05/29 11:28:14;;;;;;;2.70;0.98;;;23.20;54.60;;;;;;4962284;28;20204;-66
2023/05/29 11:30:46;;;;;;;2.13;1.17;;;23.30;54.50;;;;;;4964631;28;20207;-66
2023/05/29 11:33:24;;;;;;;2.65;0.93;;;23.30;54.10;;;;;;4967900;28;20215;-65
2023/05/29 11:35:57;;;;;;;0.93;0.60;;;23.30;54.00;;;;;;4960334;28;20216;-65
2023/05/29 11:38:26;;;;;;;1.27;1.08;;;23.30;54.10;;;;;;4969283;28;20233;-65
2023/05/29 11:40:55;;;;;;;2.60;1.27;;;23.40;54.10;;;;;;4982813;28;20188;-66
2023/05/29 11:43:22;;;;;;;2.58;0.85;;;23.40;53.80;;;;;;4968897;28;20192;-65
2023/05/29 11:45:49;;;;;;;1.13;0.90;;;23.40;53.80;;;;;;4956612;28;20259;-65
2023/05/29 11:48:16;;;;;;;1.38;0.85;;;23.40;53.80;;;;;;4953411;28;20205;-66
2023/05/29 11:50:44;;;;;;;1.17;1.02;;;23.50;53.80;;;;;;4957134;28;20290;-65
2023/05/29 11:53:13;;;;;;;5.75;1.10;;;23.50;53.20;;;;;;4964269;28;20683;-66
2023/05/29 11:55:41;;;;;;;3.92;1.20;;;23.50;52.50;;;;;;4971322;28;20664;-66
2023/05/29 11:58:08;;;;;;;3.30;1.35;;;23.50;51.80;;;;;;4963204;28;20668;-65
2023/05/29 12:00:37;;;;;;;5.25;1.40;;;23.40;51.20;;;;;;4977044;28;20203;-66
2023/05/29 12:03:05;;;;;;;2.13;1.20;;;23.40;51.10;;;;;;4964186;28;20236;-66
2023/05/29 12:05:32;;;;;;;4.82;1.20;;;23.40;51.10;;;;;;4963899;28;20266;-66
2023/05/29 12:08:01;;;;;;;1.00;0.90;;;23.30;50.90;;;;;;4972981;28;20606;-66
2023/05/29 12:10:29;;;;;;;1.55;1.10;;;23.30;50.50;;;;;;4970896;28;20196;-66
2023/05/29 12:13:00;;;;;;;2.28;1.20;;;23.30;50.60;;;;;;4953053;28;20199;-66
2023/05/29 12:15:28;;;;;;;4.22;1.42;;;23.30;50.50;;;;;;4969060;28;20221;-66
2023/05/29 12:17:57;;;;;;;5.03;1.33;;;23.30;50.20;;;;;;4951241;28;20291;-67
2023/05/29 12:20:27;;;;;;;3.50;1.30;;;23.30;50.60;;;;;;4969183;28;20192;-67
2023/05/29 12:22:59;;;;;;;2.35;1.40;;;23.30;51.10;;;;;;4958351;28;20200;-67
2023/05/29 12:25:27;;;;;;;2.67;1.05;;;23.30;50.50;;;;;;4964796;28;20620;-67
2023/05/29 12:27:58;;;;;;;1.13;1.05;;;23.30;50.00;;;;;;4974128;28;20227;-66
2023/05/29 12:30:26;;;;;;;1.83;1.13;;;23.30;49.30;;;;;;4970325;28;20196;-67
2023/05/29 12:32:54;;;;;;;1.60;1.10;;;23.30;49.10;;;;;;4968377;28;20268;-68
2023/05/29 12:35:23;;;;;;;3.50;1.40;;;23.20;49.20;;;;;;4973270;28;20205;-67
2023/05/29 12:37:55;;;;;;;1.67;1.25;;;23.30;48.70;;;;;;4972153;28;20189;-67
2023/05/29 12:40:24;;;;;;;3.10;1.08;;;23.30;48.10;;;;;;4949836;28;20268;-66
2023/05/29 12:42:55;;;;;;;3.35;1.25;;;23.20;47.70;;;;;;4972105;28;20216;-66
2023/05/29 12:45:26;;;;;;;2.33;1.13;;;23.20;48.00;;;;;;4967972;28;20208;-66
2023/05/29 12:47:55;;;;;;;2.05;1.10;;;23.10;47.50;;;;;;4961592;28;20242;-66
2023/05/29 12:50:24;;;;;;;3.00;1.00;;;23.10;47.30;;;;;;4976094;28;20197;-68
2023/05/29 12:52:58;;;;;;;7.55;1.10;;;23.10;47.30;;;;;;4974921;28;20346;-67
2023/05/29 12:55:26;;;;;;;1.92;0.95;;;23.10;47.20;;;;;;4965906;28;20211;-67
2023/05/29 12:57:54;;;;;;;4.43;1.00;;;23.10;47.10;;;;;;4975633;28;20295;-67
2023/05/29 13:00:22;;;;;;;3.60;1.13;;;23.10;47.20;;;;;;4961906;28;20208;-67
2023/05/29 13:02:51;;;;;;;1.55;1.10;;;23.10;47.40;;;;;;4967812;28;20287;-66
2023/05/29 13:05:22;;;;;;;1.73;1.20;;;23.10;47.50;;;;;;4962450;28;20204;-66